Time;durP1;ratioP1;P1;durP2;ratioP2;P2;SDS_P1;SDS_P2;PMS_P1;PMS_P2;Temp;Humidity;BMP_temperature;BMP_pressure;BME280_temperature;BME280_humidity;BME280_pressure;Samples;Min_cycle;Max_cycle;Signal;HPM_P1;HPM_P2
2021/08/17 00:01:10;;;;;;;;;33.25;29.25;;;;;18.25;54.21;101841.28;6342011;22;45179;-77
2021/08/17 00:03:36;;;;;;;;;28.75;26.25;;;;;18.28;54.52;101846.56;6314267;22;45183;-77
2021/08/17 00:06:04;;;;;;;;;28.75;26.25;;;;;18.30;54.19;101850.97;6342381;22;45171;-77
2021/08/17 00:08:30;;;;;;;;;28.00;25.50;;;;;18.29;54.52;101857.22;6313978;22;45391;-77
2021/08/17 00:10:55;;;;;;;;;27.25;24.00;;;;;18.16;54.11;101839.66;6342200;22;46026;-77
2021/08/17 00:13:21;;;;;;;;;24.50;23.75;;;;;18.19;54.58;101850.28;6314399;22;45414;-78
2021/08/17 00:15:47;;;;;;;;;23.25;22.75;;;;;18.17;54.33;101852.09;6342896;22;45314;-77
2021/08/17 00:18:13;;;;;;;;;25.25;23.00;;;;;18.10;54.61;101842.44;6314793;22;45327;-77
2021/08/17 00:20:38;;;;;;;;;30.50;26.00;;;;;18.16;54.55;101858.34;6341997;22;45504;-77
2021/08/17 00:23:06;;;;;;;;;18.50;16.25;;;;;18.07;54.42;101846.06;6313917;22;45283;-77
2021/08/17 00:25:32;;;;;;;;;24.25;22.25;;;;;18.04;54.70;101846.09;6342475;22;45235;-77
2021/08/17 00:27:57;;;;;;;;;28.50;27.75;;;;;18.10;54.87;101855.78;6342287;22;45284;-77
2021/08/17 00:30:23;;;;;;;;;26.50;23.00;;;;;18.07;54.74;101847.84;6341949;22;45273;-77
2021/08/17 00:32:51;;;;;;;;;28.00;25.00;;;;;18.00;55.08;101841.72;6342140;22;45195;-78
2021/08/17 00:35:16;;;;;;;;;24.00;22.75;;;;;17.99;55.16;101841.72;6342220;22;45387;-77
2021/08/17 00:37:42;;;;;;;;;21.75;20.50;;;;;17.95;55.34;101834.72;6313602;22;45429;-78
2021/08/17 00:40:08;;;;;;;;;28.50;23.75;;;;;17.89;55.57;101835.69;6313967;22;48011;-77
2021/08/17 00:42:44;;;;;;;;;21.00;18.00;;;;;17.84;55.65;101834.88;6341867;22;45228;-77
2021/08/17 00:45:12;;;;;;;;;27.50;22.50;;;;;17.84;55.92;101837.56;6340875;22;45271;-77
2021/08/17 00:47:38;;;;;;;;;21.75;19.75;;;;;17.82;55.79;101836.69;6313443;22;45928;-77
2021/08/17 00:50:04;;;;;;;;;25.50;23.50;;;;;17.78;55.83;101826.97;6312966;22;47118;-78
2021/08/17 00:52:30;;;;;;;;;25.00;22.25;;;;;17.79;55.90;101834.97;6313945;22;45132;-77
2021/08/17 00:54:56;;;;;;;;;26.50;20.00;;;;;17.79;56.18;101831.41;6313864;22;45440;-78
2021/08/17 00:57:22;;;;;;;;;23.00;21.25;;;;;17.81;56.13;101833.16;6342142;22;45437;-78
2021/08/17 00:59:47;;;;;;;;;20.50;17.50;;;;;17.77;56.13;101828.72;6342141;22;46382;-78
2021/08/17 01:02:12;;;;;;;;;22.75;21.25;;;;;17.76;56.21;101832.31;6341949;22;45357;-78
2021/08/17 01:04:40;;;;;;;;;21.50;18.75;;;;;17.78;56.25;101841.16;6313332;22;45404;-77
2021/08/17 01:07:07;;;;;;;;;21.75;17.00;;;;;17.75;56.46;101830.56;6313762;22;45823;-77
2021/08/17 01:09:32;;;;;;;;;19.75;19.25;;;;;17.64;56.61;101817.41;6341513;22;45349;-77
2021/08/17 01:12:03;;;;;;;;;21.50;20.00;;;;;17.60;56.67;101814.81;6342323;22;45089;-77
2021/08/17 01:14:29;;;;;;;;;17.50;17.00;;;;;17.62;56.40;101816.56;6313555;22;45418;-77
2021/08/17 01:16:54;;;;;;;;;26.25;21.25;;;;;17.69;56.68;101824.44;6342209;22;45282;-78
2021/08/17 01:19:21;;;;;;;;;20.75;17.00;;;;;17.56;56.71;101814.00;6342374;22;45314;-78
2021/08/17 01:21:48;;;;;;;;;22.75;17.75;;;;;17.58;56.80;101813.97;6343961;22;45188;-78
2021/08/17 01:24:15;;;;;;;;;16.50;16.50;;;;;17.64;56.81;101835.16;6314405;22;45220;-77
2021/08/17 01:26:41;;;;;;;;;16.25;16.00;;;;;17.67;57.05;101840.47;6313653;22;45400;-77
2021/08/17 01:29:10;;;;;;;;;22.25;19.75;;;;;17.56;57.08;101826.41;6341805;22;45304;-77
2021/08/17 01:31:35;;;;;;;;;16.75;15.25;;;;;17.55;57.27;101828.19;6341703;22;45237;-77
2021/08/17 01:34:01;;;;;;;;;22.75;20.50;;;;;17.55;57.05;101830.00;6341828;22;45318;-77
2021/08/17 01:36:26;;;;;;;;;19.50;16.75;;;;;17.46;57.15;101830.13;6313570;22;45544;-78
2021/08/17 01:38:52;;;;;;;;;22.25;21.50;;;;;17.41;56.91;101825.75;6313030;22;48052;-78
2021/08/17 01:41:19;;;;;;;;;21.25;18.25;;;;;17.45;57.30;101839.88;6341993;22;45167;-77
2021/08/17 01:43:46;;;;;;;;;18.00;18.00;;;;;17.48;57.11;101849.59;6312947;22;45291;-78
2021/08/17 01:46:11;;;;;;;;;20.75;18.50;;;;;17.35;57.22;101822.31;6313280;22;45651;-77
2021/08/17 01:48:38;;;;;;;;;14.50;14.50;;;;;17.36;57.58;101832.03;6313164;22;46205;-77
2021/08/17 01:51:04;;;;;;;;;19.75;17.50;;;;;17.34;57.53;101834.72;6341450;22;45271;-77
2021/08/17 01:53:32;;;;;;;;;18.00;17.25;;;;;17.34;57.50;101836.50;6313180;22;45292;-77
2021/08/17 01:56:14;;;;;;;;;15.25;13.75;;;;;17.38;57.73;101851.53;6312441;22;45350;-77
2021/08/17 01:58:43;;;;;;;;;20.25;16.50;;;;;17.26;57.19;101846.38;6341469;22;45203;-77
2021/08/17 02:01:11;;;;;;;;;19.50;18.00;;;;;17.23;57.50;101836.66;6341437;22;45105;-77
2021/08/17 02:03:37;;;;;;;;;20.75;17.50;;;;;17.14;57.86;101815.50;6341836;22;45294;-78
2021/08/17 02:06:03;;;;;;;;;18.75;17.25;;;;;17.25;57.71;101848.16;6341496;22;45314;-78
2021/08/17 02:08:29;;;;;;;;;21.00;16.50;;;;;17.19;57.82;101829.63;6313271;22;46817;-78
2021/08/17 02:10:55;;;;;;;;;20.00;15.00;;;;;17.18;58.16;101833.16;6313363;22;45688;-78
2021/08/17 02:13:20;;;;;;;;;16.25;16.25;;;;;17.15;58.34;101823.44;6342528;22;45353;-77
2021/08/17 02:15:47;;;;;;;;;18.25;18.25;;;;;17.16;58.08;101832.31;6313122;22;45441;-77
2021/08/17 02:18:13;;;;;;;;;18.00;16.25;;;;;17.13;57.79;101835.91;6341647;22;46354;-77
2021/08/17 02:20:39;;;;;;;;;13.25;11.50;;;;;16.99;57.88;101811.25;6312508;22;45205;-77
2021/08/17 02:23:04;;;;;;;;;22.00;18.00;;;;;17.02;58.27;101813.88;6341924;22;45197;-77
2021/08/17 02:25:30;;;;;;;;;21.25;19.75;;;;;17.00;58.17;101823.69;6313111;22;45445;-77
2021/08/17 02:27:55;;;;;;;;;19.00;17.50;;;;;17.01;58.21;101816.56;6341402;22;45442;-77
2021/08/17 02:30:22;;;;;;;;;19.25;17.50;;;;;16.92;58.49;101814.88;6341448;22;45246;-77
2021/08/17 02:32:47;;;;;;;;;19.50;17.75;;;;;16.92;58.54;101812.22;6341489;22;45323;-77
2021/08/17 02:35:12;;;;;;;;;19.25;17.50;;;;;16.95;58.67;101826.38;6312405;22;45438;-77
2021/08/17 02:37:38;;;;;;;;;20.25;18.25;;;;;16.87;58.63;101816.75;6313012;22;47082;-77
2021/08/17 02:40:06;;;;;;;;;19.50;16.50;;;;;16.78;58.69;101803.56;6312708;22;45916;-77
2021/08/17 02:42:33;;;;;;;;;22.75;20.75;;;;;16.81;59.02;101820.34;6341716;22;45175;-77
2021/08/17 02:44:58;;;;;;;;;22.75;21.50;;;;;16.73;58.77;101812.44;6312420;22;45725;-77
2021/08/17 02:47:28;;;;;;;;;23.75;19.00;;;;;16.64;59.20;101809.88;6312617;22;47049;-77
2021/08/17 02:49:54;;;;;;;;;15.75;13.25;;;;;16.80;59.52;101833.69;6313031;22;45240;-77
2021/08/17 02:52:19;;;;;;;;;20.50;19.50;;;;;16.67;58.93;101819.59;6313297;22;45327;-77
2021/08/17 02:54:45;;;;;;;;;19.75;18.75;;;;;16.69;58.93;101826.66;6341466;22;45515;-78
2021/08/17 02:57:10;;;;;;;;;21.75;17.00;;;;;16.65;59.31;101824.97;6341274;22;45289;-78
2021/08/17 02:59:36;;;;;;;;;18.00;16.50;;;;;16.65;59.16;101830.28;6341450;22;45156;-77
2021/08/17 03:02:03;;;;;;;;;19.75;16.50;;;;;16.67;59.73;101835.56;6341633;22;45143;-77
2021/08/17 03:04:29;;;;;;;;;19.25;17.25;;;;;16.60;59.74;101826.78;6312924;22;45570;-76
2021/08/17 03:06:55;;;;;;;;;18.25;17.75;;;;;16.54;59.94;101818.84;6312271;22;46335;-77
2021/08/17 03:09:21;;;;;;;;;18.00;16.00;;;;;16.58;60.17;101823.25;6341087;22;45389;-77
2021/08/17 03:11:47;;;;;;;;;19.00;16.75;;;;;16.56;60.06;101829.50;6341417;22;45381;-77
2021/08/17 03:14:12;;;;;;;;;21.50;18.50;;;;;16.43;59.93;101807.47;6341004;22;45271;-77
2021/08/17 03:16:39;;;;;;;;;15.75;14.50;;;;;16.49;60.06;101818.94;6312517;22;47262;-77
2021/08/17 03:19:05;;;;;;;;;21.00;18.00;;;;;16.47;59.77;101818.06;6312472;22;45456;-77
2021/08/17 03:21:30;;;;;;;;;21.00;17.75;;;;;16.47;59.74;101819.84;6312884;22;45196;-77
2021/08/17 03:23:55;;;;;;;;;15.00;14.25;;;;;16.53;59.84;101830.41;6341126;22;45092;-77
2021/08/17 03:26:21;;;;;;;;;19.25;16.50;;;;;16.44;60.00;101812.78;6312698;22;47474;-77
2021/08/17 03:28:46;;;;;;;;;21.75;18.75;;;;;16.46;60.03;101820.72;6312977;22;45847;-77
2021/08/17 03:31:12;;;;;;;;;18.50;13.75;;;;;16.39;59.92;101809.28;6340989;22;45294;-77
2021/08/17 03:33:37;;;;;;;;;20.25;14.50;;;;;16.42;60.24;101811.91;6312693;22;45228;-77
2021/08/17 03:36:07;;;;;;;;;17.25;16.25;;;;;16.43;60.39;101820.75;6312177;22;46936;-77
2021/08/17 03:38:33;;;;;;;;;20.50;18.25;;;;;16.46;60.24;101824.25;6340471;22;45345;-77
2021/08/17 03:41:00;;;;;;;;;20.75;18.00;;;;;16.44;60.06;101814.53;6340589;22;45310;-77
2021/08/17 03:43:26;;;;;;;;;22.25;21.75;;;;;16.50;60.29;101830.44;6311801;22;45240;-77
2021/08/17 03:45:56;;;;;;;;;15.75;15.00;;;;;16.41;60.35;101823.44;6281167;22;46579;-77
2021/08/17 03:48:22;;;;;;;;;20.00;18.00;;;;;16.31;60.12;101796.06;6281136;22;45500;-77
2021/08/17 03:50:47;;;;;;;;;21.50;19.00;;;;;16.30;60.52;101806.72;6308999;22;45357;-77
2021/08/17 03:53:13;;;;;;;;;20.50;18.00;;;;;16.39;60.31;101819.91;6309319;22;45400;-77
2021/08/17 03:55:39;;;;;;;;;18.25;16.75;;;;;16.27;60.60;101812.06;6309322;22;45344;-77
2021/08/17 03:58:04;;;;;;;;;20.50;19.25;;;;;16.31;60.47;101825.31;6281000;22;45264;-77
2021/08/17 04:00:32;;;;;;;;;17.00;15.00;;;;;16.18;60.75;101797.09;6309470;22;45367;-77
2021/08/17 04:02:58;;;;;;;;;21.50;19.25;;;;;16.24;60.55;101810.31;6308793;22;45161;-77
2021/08/17 04:05:25;;;;;;;;;20.75;19.00;;;;;16.35;60.74;101830.59;6281162;22;47210;-77
2021/08/17 04:07:51;;;;;;;;;21.25;19.25;;;;;16.23;60.39;101815.66;6310916;22;45413;-78
2021/08/17 04:10:16;;;;;;;;;19.25;18.25;;;;;16.23;60.49;101813.88;6309163;22;45429;-77
2021/08/17 04:12:42;;;;;;;;;16.50;16.50;;;;;16.23;60.41;101815.66;6309165;22;45435;-77
2021/08/17 04:15:08;;;;;;;;;15.75;13.25;;;;;16.32;60.30;101831.50;6280982;22;47221;-77
2021/08/17 04:17:34;;;;;;;;;22.25;16.25;;;;;16.27;61.09;101815.59;6280983;22;45324;-77
2021/08/17 04:19:59;;;;;;;;;21.75;16.25;;;;;16.12;60.85;101799.81;6309818;22;45699;-77
2021/08/17 04:22:25;;;;;;;;;23.50;18.50;;;;;16.11;61.12;101795.38;6282281;22;45565;-77
2021/08/17 04:24:51;;;;;;;;;15.75;14.75;;;;;16.25;60.74;101819.16;6310278;22;45272;-77
2021/08/17 04:27:16;;;;;;;;;18.75;14.75;;;;;16.17;61.16;101808.63;6282358;22;45387;-77
2021/08/17 04:29:44;;;;;;;;;17.25;16.75;;;;;16.05;60.97;101792.81;6282966;22;45204;-77
2021/08/17 04:32:10;;;;;;;;;18.50;17.50;;;;;16.17;60.98;101811.28;6282268;22;45326;-77
2021/08/17 04:34:35;;;;;;;;;16.50;15.00;;;;;16.06;60.78;101794.53;6309866;22;45652;-77
2021/08/17 04:37:01;;;;;;;;;18.50;18.25;;;;;16.10;60.75;101806.94;6281835;22;45457;-77
2021/08/17 04:39:26;;;;;;;;;15.25;13.25;;;;;16.06;61.36;101799.88;6282633;22;45263;-77
2021/08/17 04:41:52;;;;;;;;;15.75;13.75;;;;;15.99;61.48;101796.41;6310253;22;45400;-77
2021/08/17 04:44:17;;;;;;;;;16.75;13.75;;;;;15.99;61.14;101793.75;6310090;22;45305;-77
2021/08/17 04:46:42;;;;;;;;;14.25;13.75;;;;;16.00;61.08;101797.28;6282058;22;45247;-77
2021/08/17 04:49:08;;;;;;;;;20.00;17.50;;;;;16.02;61.34;101796.38;6282267;22;45351;-77
2021/08/17 04:51:34;;;;;;;;;18.25;18.00;;;;;16.03;61.16;101791.94;6281946;22;45929;-78
2021/08/17 04:53:59;;;;;;;;;16.25;12.75;;;;;15.98;61.18;101791.97;6282307;22;47038;-78
2021/08/17 04:56:25;;;;;;;;;14.00;12.25;;;;;16.08;61.74;101820.22;6310517;22;45184;-78
2021/08/17 04:58:51;;;;;;;;;12.25;11.00;;;;;16.02;61.55;101811.44;6282752;22;45484;-77
2021/08/17 05:01:17;;;;;;;;;21.00;17.25;;;;;15.95;61.78;101797.31;6310222;22;45163;-77
2021/08/17 05:03:42;;;;;;;;;18.00;15.50;;;;;15.98;61.77;101796.41;6282445;22;47833;-77
2021/08/17 05:06:08;;;;;;;;;17.75;13.50;;;;;16.11;61.54;101816.63;6282439;22;45699;-77
2021/08/17 05:08:33;;;;;;;;;18.25;14.25;;;;;16.09;61.64;101814.03;6310775;22;45215;-77
2021/08/17 05:10:59;;;;;;;;;20.00;19.00;;;;;15.98;61.30;101799.06;6282163;22;46137;-77
2021/08/17 05:13:24;;;;;;;;;15.00;14.25;;;;;16.05;61.90;101819.38;6310357;22;45293;-76
2021/08/17 05:15:50;;;;;;;;;15.25;15.25;;;;;16.00;61.51;101811.44;6307929;22;45287;-77
2021/08/17 05:18:15;;;;;;;;;19.50;17.00;;;;;16.00;61.50;101808.78;6310518;22;45310;-77
2021/08/17 05:20:40;;;;;;;;;18.50;14.75;;;;;16.05;62.29;101822.91;6309890;22;45409;-77
2021/08/17 05:23:06;;;;;;;;;18.75;16.75;;;;;16.07;61.60;101822.91;6310047;22;46430;-77
2021/08/17 05:25:31;;;;;;;;;20.25;16.50;;;;;16.05;61.71;101812.28;6310033;22;45461;-77
2021/08/17 05:27:57;;;;;;;;;15.75;15.00;;;;;16.03;61.73;101805.22;6310357;22;45686;-77
2021/08/17 05:30:22;;;;;;;;;17.50;17.00;;;;;16.14;61.38;101821.91;6282117;22;45316;-76
2021/08/17 05:32:48;;;;;;;;;15.25;11.75;;;;;16.26;61.63;101844.84;6309975;22;45360;-77
2021/08/17 05:35:14;;;;;;;;;18.50;15.75;;;;;16.09;61.43;101824.66;6309868;22;45293;-77
2021/08/17 05:37:39;;;;;;;;;17.75;14.00;;;;;16.13;61.52;101828.13;6310225;22;45337;-77
2021/08/17 05:40:06;;;;;;;;;21.00;19.00;;;;;16.15;61.40;101833.47;6281967;22;45236;-77
2021/08/17 05:42:31;;;;;;;;;14.00;13.75;;;;;16.24;61.39;101851.97;6310178;22;45212;-77
2021/08/17 05:44:57;;;;;;;;;18.50;17.00;;;;;16.22;61.42;101853.75;6281714;22;45794;-78
2021/08/17 05:47:23;;;;;;;;;21.25;19.00;;;;;16.31;61.13;101861.66;6310392;22;45217;-77
2021/08/17 05:49:48;;;;;;;;;18.25;17.00;;;;;16.24;61.29;101844.84;6282138;22;45240;-77
2021/08/17 05:52:15;;;;;;;;;13.25;11.50;;;;;16.26;61.15;101844.84;6310063;22;46321;-77
2021/08/17 05:54:40;;;;;;;;;14.50;12.50;;;;;16.37;61.36;101853.59;6310141;22;45344;-77
2021/08/17 05:57:06;;;;;;;;;16.25;13.00;;;;;16.41;61.54;101857.09;6310072;22;45298;-77
2021/08/17 05:59:32;;;;;;;;;18.25;13.50;;;;;16.33;61.09;101857.16;6282046;22;45455;-77
2021/08/17 06:01:59;;;;;;;;;17.50;15.75;;;;;16.35;61.34;101854.50;6281398;22;46964;-78
2021/08/17 06:04:26;;;;;;;;;15.75;14.25;;;;;16.35;61.17;101852.72;6309647;22;45328;-77
2021/08/17 06:06:51;;;;;;;;;19.25;18.00;;;;;16.28;61.56;101841.28;6281670;22;45258;-77
2021/08/17 06:09:20;;;;;;;;;11.50;11.50;;;;;16.38;61.59;101850.03;6281780;22;45454;-77
2021/08/17 06:11:47;;;;;;;;;16.25;15.25;;;;;16.50;61.27;101867.66;6281775;22;46430;-77
2021/08/17 06:14:13;;;;;;;;;17.00;15.25;;;;;16.36;61.37;101846.53;6309664;22;45258;-77
2021/08/17 06:16:40;;;;;;;;;15.25;14.00;;;;;16.49;60.99;101871.19;6309792;22;45402;-77
2021/08/17 06:19:05;;;;;;;;;16.75;16.75;;;;;16.43;61.46;101865.94;6281282;22;45354;-77
2021/08/17 06:21:32;;;;;;;;;16.50;14.00;;;;;16.41;61.57;101862.41;6309864;22;45368;-77
2021/08/17 06:23:58;;;;;;;;;14.25;13.25;;;;;16.32;61.29;101861.59;6309846;22;45155;-77
2021/08/17 06:26:24;;;;;;;;;13.50;13.50;;;;;16.34;61.52;101858.94;6309977;22;45166;-77
2021/08/17 06:28:49;;;;;;;;;12.25;12.25;;;;;16.44;61.37;101879.22;6309881;22;45197;-77
2021/08/17 06:31:21;;;;;;;;;14.00;14.00;;;;;16.37;61.48;101863.34;6281712;22;47022;-77
2021/08/17 06:33:47;;;;;;;;;18.50;14.75;;;;;16.44;61.46;101859.72;6281264;22;45201;-77
2021/08/17 06:36:12;;;;;;;;;13.00;13.00;;;;;16.48;61.44;101872.97;6309876;22;45287;-77
2021/08/17 06:38:38;;;;;;;;;16.75;15.25;;;;;16.38;61.72;101843.84;6309860;22;45101;-77
2021/08/17 06:41:03;;;;;;;;;15.75;13.75;;;;;16.37;61.55;101848.28;6309734;22;45943;-77
2021/08/17 06:43:29;;;;;;;;;18.00;14.00;;;;;16.42;61.52;101849.13;6308899;22;45110;-77
2021/08/17 06:45:55;;;;;;;;;12.50;11.25;;;;;16.58;61.66;101876.44;6309877;22;45236;-77
2021/08/17 06:48:21;;;;;;;;;18.00;14.75;;;;;16.54;61.76;101856.06;6281576;22;45472;-76
2021/08/17 06:50:46;;;;;;;;;20.50;14.50;;;;;16.58;61.51;101859.59;6281178;22;46645;-77
2021/08/17 06:53:12;;;;;;;;;15.00;12.50;;;;;16.68;61.63;101858.59;6281680;22;45611;-77
2021/08/17 06:55:38;;;;;;;;;14.50;12.75;;;;;16.74;61.47;101866.50;6310107;22;45294;-77
2021/08/17 06:58:05;;;;;;;;;18.00;16.25;;;;;16.80;61.61;101861.16;6309624;22;45533;-77
2021/08/17 07:00:31;;;;;;;;;12.75;12.25;;;;;16.84;61.13;101868.22;6281499;22;46523;-77
2021/08/17 07:02:56;;;;;;;;;17.25;15.00;;;;;16.74;61.10;101848.78;6281074;22;45200;-77
2021/08/17 07:05:22;;;;;;;;;14.50;13.50;;;;;16.87;60.96;101854.00;6307076;22;45199;-77
2021/08/17 07:07:47;;;;;;;;;15.25;13.25;;;;;16.93;61.58;101857.44;6281547;22;45407;-77
2021/08/17 07:10:13;;;;;;;;;17.50;14.25;;;;;16.88;61.08;101837.13;6281229;22;47804;-76
2021/08/17 07:12:39;;;;;;;;;15.00;14.00;;;;;17.05;61.22;101853.72;6309746;22;45243;-77
2021/08/17 07:15:05;;;;;;;;;11.75;11.50;;;;;17.03;60.97;101849.38;6309735;22;45483;-77
2021/08/17 07:17:30;;;;;;;;;13.75;12.25;;;;;17.10;60.69;101859.88;6280671;22;45323;-77
2021/08/17 07:19:56;;;;;;;;;15.00;14.50;;;;;17.15;61.13;101863.38;6308774;22;45889;-77
2021/08/17 07:22:21;;;;;;;;;22.00;17.50;;;;;17.24;60.89;101872.13;6309230;22;45292;-77
2021/08/17 07:24:47;;;;;;;;;14.25;12.75;;;;;17.29;61.14;101875.63;6309452;22;45337;-77
2021/08/17 07:27:12;;;;;;;;;20.00;16.25;;;;;17.29;60.77;101867.63;6281666;22;45436;-77
2021/08/17 07:29:37;;;;;;;;;16.25;13.75;;;;;17.45;60.69;101878.94;6310068;22;45314;-77
2021/08/17 07:32:03;;;;;;;;;16.00;14.25;;;;;17.41;61.05;101854.16;6309790;22;45290;-77
2021/08/17 07:34:29;;;;;;;;;14.50;13.25;;;;;17.68;60.71;101875.97;6281849;22;45452;-77
2021/08/17 07:36:54;;;;;;;;;15.00;13.25;;;;;17.75;60.83;101878.50;6309838;22;45303;-77
2021/08/17 07:39:19;;;;;;;;;15.00;11.50;;;;;17.84;60.64;101874.84;6281323;22;48102;-77
2021/08/17 07:41:45;;;;;;;;;12.00;10.50;;;;;17.87;59.94;101863.28;6309076;22;45362;-77
2021/08/17 07:44:11;;;;;;;;;13.75;12.25;;;;;18.01;60.16;101874.56;6280692;22;45288;-78
2021/08/17 07:46:36;;;;;;;;;12.00;10.50;;;;;17.98;59.72;101862.19;6309220;22;45240;-78
2021/08/17 07:49:02;;;;;;;;;13.00;11.75;;;;;18.12;59.85;101877.94;6280668;22;47303;-77
2021/08/17 07:51:28;;;;;;;;;13.00;13.00;;;;;18.10;59.90;101871.78;6280987;22;45187;-78
2021/08/17 07:53:54;;;;;;;;;10.00;10.00;;;;;18.14;59.64;101869.94;6309880;22;45172;-77
2021/08/17 07:56:19;;;;;;;;;16.00;13.75;;;;;18.26;59.75;101885.72;6282025;22;45354;-77
2021/08/17 07:58:45;;;;;;;;;12.00;12.00;;;;;18.28;59.38;101865.22;6310682;22;45996;-78
2021/08/17 08:01:12;;;;;;;;;14.25;11.75;;;;;18.38;59.70;101871.28;6310382;22;45274;-77
2021/08/17 08:03:39;;;;;;;;;14.00;11.75;;;;;18.45;59.47;101865.81;6310364;22;45321;-78
2021/08/17 08:06:05;;;;;;;;;17.50;14.50;;;;;18.52;59.40;101856.78;6281782;22;45362;-78
2021/08/17 08:08:30;;;;;;;;;11.75;11.75;;;;;18.73;59.06;101886.63;6307838;22;46860;-78
2021/08/17 08:10:56;;;;;;;;;11.00;10.75;;;;;18.79;58.92;101873.22;6310039;22;45281;-78
2021/08/17 08:13:21;;;;;;;;;10.75;10.25;;;;;18.96;58.48;101880.88;6310484;22;45496;-78
2021/08/17 08:15:47;;;;;;;;;12.75;11.25;;;;;18.99;58.57;101862.13;6310123;22;45436;-78
2021/08/17 08:18:12;;;;;;;;;10.50;9.75;;;;;19.18;58.20;101871.50;6309897;22;45395;-77
2021/08/17 08:20:37;;;;;;;;;13.00;12.00;;;;;19.36;58.27;101875.56;6309967;22;45186;-77
2021/08/17 08:23:05;;;;;;;;;9.50;8.50;;;;;19.49;57.97;101884.19;6282234;22;45256;-78
2021/08/17 08:25:31;;;;;;;;;11.00;10.25;;;;;19.59;57.25;101882.16;6310046;22;45393;-77
2021/08/17 08:27:56;;;;;;;;;11.50;11.50;;;;;19.69;57.23;101883.75;6309959;22;46439;-78
2021/08/17 08:30:21;;;;;;;;;9.25;9.25;;;;;19.77;57.48;101884.44;6282181;22;45286;-78
2021/08/17 08:32:47;;;;;;;;;7.75;6.50;;;;;19.87;57.36;101887.78;6281804;22;45195;-78
2021/08/17 08:35:12;;;;;;;;;11.75;10.75;;;;;19.96;56.80;101889.34;6281988;22;45313;-78
2021/08/17 08:37:38;;;;;;;;;12.00;10.75;;;;;20.00;56.74;101875.88;6281515;22;47224;-77
2021/08/17 08:40:06;;;;;;;;;10.50;9.50;;;;;20.12;56.23;101889.84;6309945;22;45302;-78
2021/08/17 08:42:35;;;;;;;;;12.00;10.00;;;;;20.18;56.29;101885.25;6309713;22;45228;-78
2021/08/17 08:45:00;;;;;;;;;10.50;9.75;;;;;20.41;56.47;101889.09;6280833;22;45418;-78
2021/08/17 08:47:27;;;;;;;;;14.50;12.00;;;;;20.60;55.99;101889.53;6281274;22;46196;-77
2021/08/17 08:49:53;;;;;;;;;11.00;10.25;;;;;20.79;55.61;101895.25;6281539;22;45363;-78
2021/08/17 08:52:20;;;;;;;;;9.00;9.00;;;;;20.89;55.07;101884.22;6282064;22;45214;-78
2021/08/17 08:54:45;;;;;;;;;6.00;6.00;;;;;20.97;54.65;101886.69;6310284;22;45179;-78
2021/08/17 08:57:11;;;;;;;;;11.50;9.50;;;;;21.03;54.61;101877.59;6281769;22;47159;-78
2021/08/17 08:59:37;;;;;;;;;11.25;9.00;;;;;21.10;54.11;101885.41;6281594;22;45726;-77
2021/08/17 09:02:06;;;;;;;;;11.75;9.50;;;;;21.14;53.94;101891.56;6310044;22;45179;-78
2021/08/17 09:04:32;;;;;;;;;10.33;8.67;;;;;21.08;53.49;101881.91;6281741;22;45568;-77
2021/08/17 09:06:57;;;;;;;;;7.67;7.67;;;;;21.12;53.74;101883.56;6309912;22;46435;-77
2021/08/17 09:09:23;;;;;;;;;11.33;8.67;;;;;21.19;53.67;101886.94;6307477;22;45275;-77
2021/08/17 09:11:54;;;;;;;;;12.25;12.00;;;;;21.21;53.33;101885.09;6281531;22;45365;-77
2021/08/17 09:14:31;;;;;;;;;11.00;8.75;;;;;21.24;53.45;101884.13;6309737;22;45460;-77
2021/08/17 09:17:01;;;;;;;;;11.00;8.75;;;;;21.18;52.88;101879.84;6281390;22;47033;-77
2021/08/17 09:19:32;;;;;;;;;11.25;8.25;;;;;21.20;53.40;101886.03;6308758;22;45240;-78
2021/08/17 09:22:13;;;;;;;;;11.25;9.50;;;;;21.22;53.27;101880.63;6309727;22;45373;-77
2021/08/17 09:24:39;;;;;;;;;11.25;9.25;;;;;21.31;53.28;101880.34;6309624;22;45176;-77
2021/08/17 09:27:10;;;;;;;;;8.00;8.00;;;;;21.35;53.21;101873.97;6309780;22;46629;-77
2021/08/17 09:29:39;;;;;;;;;13.00;12.75;;;;;21.52;52.84;101873.50;6309976;22;45160;-77
2021/08/17 09:32:27;;;;;;;;;9.25;8.50;;;;;21.78;52.58;101870.88;6281093;22;45230;-77
2021/08/17 09:34:55;;;;;;;;;7.50;6.50;;;;;21.93;51.97;101872.16;6280694;22;45980;-77
2021/08/17 09:37:26;;;;;;;;;10.25;10.00;;;;;22.00;51.41;101871.03;6309160;22;45231;-78
2021/08/17 09:39:54;;;;;;;;;9.25;7.75;;;;;22.01;51.07;101871.91;6281057;22;45283;-78
2021/08/17 09:42:31;;;;;;;;;11.25;10.50;;;;;21.94;50.61;101859.59;6281157;22;45336;-78
2021/08/17 09:45:05;;;;;;;;;11.33;9.67;;;;;21.90;51.14;101852.63;6308892;22;45204;-78
2021/08/17 09:47:35;;;;;;;;;8.00;7.00;;;;;21.93;50.95;101855.19;6308714;22;46472;-78
2021/08/17 09:50:17;;;;;;;;;9.25;8.00;;;;;21.93;50.92;101871.28;6280951;22;45394;-78
2021/08/17 09:52:43;;;;;;;;;11.25;9.50;;;;;21.87;50.64;101858.09;6309520;22;45145;-78
2021/08/17 09:55:20;;;;;;;;;11.00;10.00;;;;;21.89;50.70;101861.56;6309607;22;45109;-78
2021/08/17 09:57:47;;;;;;;;;13.00;9.50;;;;;21.95;50.64;101854.22;6309094;22;45596;-78
2021/08/17 10:00:16;;;;;;;;;10.67;8.67;;;;;22.05;50.95;101852.06;6281291;22;45941;-78
2021/08/17 10:02:46;;;;;;;;;9.33;7.67;;;;;22.29;50.37;101849.50;6309706;22;45334;-77
2021/08/17 10:05:14;;;;;;;;;8.00;7.00;;;;;22.42;49.43;101856.22;6309305;22;45287;-78
2021/08/17 10:07:41;;;;;;;;;6.50;6.50;;;;;22.41;48.98;101847.28;6308897;22;45361;-76
2021/08/17 10:10:09;;;;;;;;;11.00;8.67;;;;;22.45;48.66;101858.78;6309426;22;45179;-76
2021/08/17 10:12:36;;;;;;;;;10.25;8.50;;;;;22.40;48.76;101848.22;6309182;22;45188;-76
2021/08/17 10:15:03;;;;;;;;;14.33;11.67;;;;;22.39;48.79;101845.59;6280739;22;45342;-76
2021/08/17 10:17:28;;;;;;;;;9.50;9.50;;;;;22.39;48.80;101846.44;6308312;22;45381;-76
2021/08/17 10:19:54;;;;;;;;;8.75;7.75;;;;;22.40;48.71;101839.28;6309169;22;45308;-78
2021/08/17 10:22:20;;;;;;;;;9.50;9.50;;;;;22.38;48.55;101838.47;6281040;22;45251;-76
2021/08/17 10:24:48;;;;;;;;;9.00;7.67;;;;;22.34;48.08;101844.88;6281148;22;45511;-76
2021/08/17 10:27:24;;;;;;;;;12.00;9.25;;;;;22.34;47.96;101848.41;6308552;22;45763;-76
2021/08/17 10:30:17;;;;;;;;;11.33;11.33;;;;;22.34;48.03;101843.06;6281522;22;45312;-76
2021/08/17 10:32:54;;;;;;;;;8.50;7.50;;;;;22.50;47.88;101846.06;6280444;22;45122;-76
2021/08/17 10:35:34;;;;;;;;;11.25;10.25;;;;;22.59;47.60;101842.19;6280478;22;45945;-76
2021/08/17 10:38:11;;;;;;;;;10.75;9.50;;;;;22.59;47.05;101832.34;6308994;22;45374;-76
2021/08/17 10:40:51;;;;;;;;;9.00;9.00;;;;;22.51;46.47;101831.75;6309131;22;45187;-76
2021/08/17 10:43:21;;;;;;;;;8.00;7.00;;;;;22.45;46.46;101827.47;6308712;22;45342;-75
2021/08/17 10:45:55;;;;;;;;;5.67;5.33;;;;;22.31;46.55;101826.19;6280887;22;45446;-75
2021/08/17 10:51:31;;;;;;;;;8.00;8.00;;;;;22.27;46.90;101816.53;6303066;22;45295;-77
2021/08/17 10:54:00;;;;;;;;;8.75;7.50;;;;;22.34;46.90;101812.66;6308652;22;45350;-77
2021/08/17 10:56:34;;;;;;;;;7.00;7.00;;;;;22.40;46.36;101805.28;6307056;22;45532;-77
2021/08/17 10:59:00;;;;;;;;;8.00;7.75;;;;;22.43;46.62;101805.19;6281592;22;48219;-79
2021/08/17 11:01:34;;;;;;;;;8.00;8.00;;;;;22.65;46.48;101807.06;6309064;22;45219;-76
2021/08/17 11:04:06;;;;;;;;;5.50;5.50;;;;;22.82;45.57;101798.38;6306799;22;45287;-76
2021/08/17 11:06:43;;;;;;;;;7.33;7.33;;;;;23.00;45.95;101805.75;6309167;22;45397;-78
2021/08/17 11:09:13;;;;;;;;;7.00;6.67;;;;;23.18;45.29;101804.19;6308988;22;45401;-77
2021/08/17 11:11:40;;;;;;;;;8.25;7.00;;;;;23.36;43.80;101804.34;6306958;22;45209;-76
2021/08/17 11:14:07;;;;;;;;;6.67;6.00;;;;;23.42;43.54;101810.38;6281045;22;45321;-75